createdAt,value
2022-12-26T10:18:54.290Z,14.90
2022-12-26T10:21:57.210Z,15.00
2022-12-26T10:24:27.269Z,15.10
2022-12-26T10:27:02.437Z,15.20
2022-12-26T10:29:38.076Z,15.30
2022-12-26T10:32:42.846Z,15.70
2022-12-26T10:35:45.547Z,15.90
2022-12-26T10:38:40.016Z,16.10
2022-12-26T10:53:00.747Z,12.20
2022-12-26T10:55:34.671Z,11.00
2022-12-26T10:58:37.674Z,10.20
2022-12-26T11:01:47.543Z,9.70
2022-12-26T11:07:17.477Z,9.00
2022-12-26T11:10:13.807Z,8.90
2022-12-26T11:12:50.286Z,8.90
2022-12-26T11:15:21.895Z,8.80
2022-12-26T11:17:51.307Z,8.80
2022-12-26T11:20:18.090Z,8.80
2022-12-26T11:22:46.432Z,8.80
2022-12-26T11:25:23.833Z,8.70
2022-12-26T11:27:53.563Z,8.70
2022-12-26T11:30:28.479Z,8.60
2022-12-26T11:33:16.344Z,8.60
2022-12-26T11:35:50.988Z,8.60
2022-12-26T11:38:39.168Z,8.60
2022-12-26T11:41:32.163Z,8.70
2022-12-26T11:44:22.732Z,8.70
2022-12-26T11:47:08.716Z,8.60
2022-12-26T11:50:02.338Z,8.60
2022-12-26T11:52:34.911Z,8.60
2022-12-26T11:55:24.865Z,8.60
2022-12-26T11:58:09.820Z,8.60
2022-12-26T12:01:01.418Z,8.60
2022-12-26T12:03:48.925Z,8.60
2022-12-26T12:06:33.829Z,8.60
2022-12-26T12:09:23.761Z,8.60
2022-12-26T12:12:17.609Z,8.60
2022-12-26T12:15:01.708Z,8.50
2022-12-26T12:17:48.189Z,8.50
2022-12-26T12:20:32.318Z,8.50
2022-12-26T12:22:58.914Z,8.50
2022-12-26T12:25:40.267Z,8.50
2022-12-26T12:29:03.886Z,8.50
2022-12-26T12:31:43.938Z,8.50
2022-12-26T12:34:44.965Z,8.50
2022-12-26T12:37:34.460Z,8.40
2022-12-26T12:40:07.221Z,8.40
2022-12-26T12:42:52.292Z,8.40
2022-12-26T12:45:54.310Z,8.40
2022-12-26T12:48:28.629Z,8.40
2022-12-26T12:51:06.135Z,8.50
2022-12-26T12:53:59.361Z,8.50
2022-12-26T12:56:56.994Z,8.50
2022-12-26T12:59:27.611Z,8.50
2022-12-26T13:02:16.799Z,8.50
2022-12-26T13:04:52.971Z,8.50
2022-12-26T13:07:34.084Z,8.50
2022-12-26T13:10:05.158Z,8.50
2022-12-26T13:12:37.600Z,8.50
2022-12-26T13:15:28.023Z,8.50
2022-12-26T13:18:06.082Z,8.50
2022-12-26T13:20:48.969Z,8.50
2022-12-26T13:23:44.544Z,8.60
2022-12-26T13:26:45.269Z,8.60
2022-12-26T13:29:31.194Z,8.50
2022-12-26T13:31:59.305Z,8.50
2022-12-26T13:34:26.545Z,8.50
2022-12-26T13:36:55.928Z,8.50
2022-12-26T13:39:26.915Z,8.50
2022-12-26T13:42:27.813Z,8.50
2022-12-26T13:44:54.853Z,8.50
2022-12-26T13:47:39.357Z,8.40
2022-12-26T13:50:48.543Z,8.40
2022-12-26T13:53:26.106Z,8.30
2022-12-26T13:56:02.703Z,8.30
2022-12-26T13:58:32.803Z,8.20
2022-12-26T14:01:11.667Z,8.20
2022-12-26T14:03:44.189Z,8.20
2022-12-26T14:06:23.634Z,8.20
2022-12-26T14:09:11.546Z,8.20
2022-12-26T14:11:44.660Z,8.20
2022-12-26T14:18:07.674Z,8.20
2022-12-26T14:20:43.694Z,8.20
2022-12-26T14:23:22.359Z,8.10
2022-12-26T14:25:53.789Z,8.10
2022-12-26T14:28:37.661Z,8.00
2022-12-26T14:31:28.137Z,8.00
2022-12-26T14:34:42.595Z,8.00
2022-12-26T14:37:43.181Z,8.10
2022-12-26T14:40:16.080Z,8.00
2022-12-26T14:43:27.503Z,8.00
2022-12-26T14:45:54.477Z,8.00
2022-12-26T14:48:24.466Z,8.00
2022-12-26T14:50:56.563Z,8.00
2022-12-26T14:53:29.009Z,7.90
2022-12-26T14:56:22.641Z,8.00
2022-12-26T14:59:39.369Z,8.00
2022-12-26T15:02:33.562Z,7.90
2022-12-26T15:05:10.181Z,8.00
2022-12-26T15:07:46.106Z,8.00
2022-12-26T15:10:31.375Z,8.00
2022-12-26T15:13:22.844Z,8.00
2022-12-26T15:16:22.627Z,7.90
2022-12-26T15:18:52.389Z,7.90
2022-12-26T15:21:40.589Z,7.90
2022-12-26T15:25:00.287Z,7.80
2022-12-26T15:27:34.205Z,7.90
2022-12-26T15:30:21.569Z,7.90
2022-12-26T15:33:18.059Z,7.90
2022-12-26T15:36:03.112Z,7.90
2022-12-26T15:38:36.375Z,7.90
2022-12-26T15:41:42.219Z,7.90
2022-12-26T15:44:21.021Z,7.90
2022-12-26T15:47:13.821Z,7.90
2022-12-26T15:53:37.733Z,7.90
2022-12-26T15:56:25.257Z,7.90
2022-12-26T15:59:34.875Z,7.80
2022-12-26T16:02:03.816Z,7.80
2022-12-26T16:04:38.841Z,7.80
2022-12-26T16:07:33.810Z,7.80
2022-12-26T16:10:02.284Z,7.80
2022-12-26T16:12:31.464Z,7.80
2022-12-26T16:15:18.184Z,7.80
2022-12-26T16:17:46.527Z,7.90
2022-12-26T16:20:50.949Z,7.90
2022-12-26T16:23:21.989Z,7.90
2022-12-26T16:25:53.731Z,7.90
2022-12-26T16:28:44.339Z,7.90
2022-12-26T16:31:21.845Z,7.90
2022-12-26T16:33:50.694Z,7.90
2022-12-26T16:36:30.364Z,7.90
2022-12-26T16:38:57.004Z,7.90
2022-12-26T16:41:31.976Z,7.90
2022-12-26T16:44:30.426Z,7.90
2022-12-26T16:47:02.189Z,7.90
2022-12-26T16:49:32.555Z,7.90
2022-12-26T16:51:59.656Z,7.90
2022-12-26T16:54:30.424Z,7.90
2022-12-26T16:56:57.016Z,7.90
2022-12-26T16:59:27.621Z,7.90
2022-12-26T17:02:00.644Z,7.90
2022-12-26T17:04:32.634Z,7.90
2022-12-26T17:07:07.837Z,8.00
2022-12-26T17:09:49.702Z,7.90
2022-12-26T17:12:39.929Z,7.90
2022-12-26T17:15:07.684Z,8.00
2022-12-26T17:17:39.381Z,8.00
2022-12-26T17:20:29.259Z,8.00
2022-12-26T17:22:57.417Z,8.00
2022-12-26T17:25:29.310Z,8.00
2022-12-26T17:28:08.740Z,8.00
2022-12-26T17:30:41.122Z,8.00
2022-12-26T17:33:15.063Z,8.00
2022-12-26T17:38:45.874Z,8.00
2022-12-26T17:41:19.812Z,8.00
2022-12-26T17:43:47.442Z,8.00
2022-12-26T17:46:17.610Z,8.00
2022-12-26T17:48:45.096Z,7.90
2022-12-26T17:51:17.255Z,7.90
2022-12-26T17:53:51.405Z,7.90
2022-12-26T17:56:21.113Z,7.90
2022-12-26T17:58:50.528Z,7.90
2022-12-26T18:01:21.269Z,7.90
2022-12-26T18:03:49.015Z,7.90
2022-12-26T18:06:27.371Z,7.90
2022-12-26T18:08:54.027Z,7.90
2022-12-26T18:11:20.800Z,7.90
2022-12-26T18:13:47.581Z,7.90
2022-12-26T18:16:17.279Z,7.90
2022-12-26T18:18:45.447Z,7.90
2022-12-26T18:21:14.307Z,7.90
2022-12-26T18:23:41.671Z,7.90
2022-12-26T18:26:44.217Z,7.90
2022-12-26T18:29:23.296Z,7.90
2022-12-26T18:32:06.397Z,7.90
2022-12-26T18:34:49.847Z,8.00
2022-12-26T18:37:22.929Z,7.90
2022-12-26T18:39:53.164Z,8.00
2022-12-26T18:42:20.285Z,8.00
2022-12-26T18:44:46.978Z,8.00
2022-12-26T18:47:17.705Z,8.00
2022-12-26T18:49:45.015Z,7.90
2022-12-26T18:52:17.839Z,7.90
2022-12-26T18:54:44.906Z,7.80
2022-12-26T18:57:17.350Z,7.80
2022-12-26T18:59:44.221Z,7.80
2022-12-26T19:02:16.749Z,7.80
2022-12-26T19:04:43.387Z,7.50
2022-12-26T19:07:11.617Z,7.00
2022-12-26T19:09:45.073Z,6.70
2022-12-26T19:12:11.790Z,6.20
2022-12-26T19:14:38.522Z,5.80
2022-12-26T19:17:07.462Z,5.70
2022-12-26T19:19:34.253Z,5.50
2022-12-26T19:22:00.987Z,5.40
2022-12-26T19:24:34.116Z,5.40
2022-12-26T19:27:01.624Z,5.30
2022-12-26T19:29:28.486Z,5.30
2022-12-26T19:31:56.417Z,5.30
2022-12-26T19:34:23.474Z,5.30
2022-12-26T19:36:51.424Z,5.40
2022-12-26T19:39:21.787Z,5.40
2022-12-26T19:41:50.443Z,5.40
2022-12-26T19:44:17.104Z,5.40
2022-12-26T19:46:43.979Z,5.40
2022-12-26T19:49:11.674Z,5.40
2022-12-26T19:51:38.558Z,5.40
2022-12-26T19:54:18.424Z,5.40
2022-12-26T19:56:48.431Z,5.40
2022-12-26T19:59:15.072Z,5.40
2022-12-26T20:01:41.970Z,5.40
2022-12-26T20:04:08.941Z,5.50
2022-12-26T20:06:42.947Z,5.40
2022-12-26T20:09:12.899Z,5.50
2022-12-26T20:11:42.524Z,5.50
2022-12-26T20:14:13.015Z,5.50
2022-12-26T20:17:09.116Z,5.50
2022-12-26T20:19:36.803Z,5.50
2022-12-26T20:22:07.250Z,5.50
2022-12-26T20:24:34.350Z,5.60
2022-12-26T20:27:02.919Z,5.60
2022-12-26T20:29:29.981Z,5.60
2022-12-26T20:31:58.100Z,5.60
2022-12-26T20:34:26.182Z,5.60
2022-12-26T20:36:57.049Z,5.60
2022-12-26T20:39:25.478Z,5.60
2022-12-26T20:41:57.172Z,5.60
2022-12-26T20:44:25.219Z,5.60
2022-12-26T20:46:52.267Z,5.60
2022-12-26T20:49:23.039Z,5.50
2022-12-26T20:51:49.689Z,5.50
2022-12-26T20:54:16.705Z,5.50
2022-12-26T20:56:45.083Z,5.50
2022-12-26T20:59:14.114Z,5.50
2022-12-26T21:01:41.352Z,5.60
2022-12-26T21:04:28.005Z,5.50
2022-12-26T21:06:54.649Z,5.50
2022-12-26T21:09:22.351Z,5.60
2022-12-26T21:11:49.093Z,5.50
2022-12-26T21:14:19.425Z,5.60
2022-12-26T21:16:52.934Z,5.60
2022-12-26T21:19:21.153Z,5.60
2022-12-26T21:21:50.356Z,5.50
2022-12-26T21:24:27.373Z,5.50
2022-12-26T21:26:56.425Z,5.60
2022-12-26T21:29:28.267Z,5.50
2022-12-26T21:32:04.786Z,5.60
2022-12-26T21:34:33.497Z,5.60
2022-12-26T21:37:51.050Z,5.60
2022-12-26T21:40:23.554Z,5.60
2022-12-26T21:43:13.284Z,5.60
2022-12-26T21:45:41.891Z,5.60
2022-12-26T21:48:13.857Z,5.60
2022-12-26T21:50:51.734Z,5.60
2022-12-26T21:53:21.111Z,5.70
2022-12-26T21:56:23.151Z,5.70
2022-12-26T21:59:08.273Z,5.70
2022-12-26T22:01:35.036Z,5.70
2022-12-26T22:04:20.612Z,5.70
2022-12-26T22:06:49.995Z,5.60
2022-12-26T22:09:17.315Z,5.60
2022-12-26T22:12:03.713Z,5.60
2022-12-26T22:14:30.585Z,5.60
2022-12-26T22:16:58.489Z,5.60
2022-12-26T22:19:26.332Z,5.60
2022-12-26T22:21:54.276Z,5.60
2022-12-26T22:24:24.379Z,5.50
2022-12-26T22:26:51.275Z,5.50
2022-12-26T22:29:17.914Z,5.40
2022-12-26T22:31:44.852Z,5.30
2022-12-26T22:34:14.180Z,5.30
2022-12-26T22:36:42.108Z,5.20
2022-12-26T22:39:13.123Z,5.20
2022-12-26T22:41:40.390Z,5.10
2022-12-26T22:44:08.119Z,5.10
2022-12-26T22:46:35.131Z,5.10
2022-12-26T22:49:02.103Z,5.10
2022-12-26T22:52:01.012Z,5.10
2022-12-26T22:54:27.671Z,5.10
2022-12-26T22:57:53.032Z,5.00
2022-12-26T23:00:20.680Z,5.00
2022-12-26T23:02:47.384Z,5.00
2022-12-26T23:05:14.557Z,4.90
2022-12-26T23:07:41.608Z,4.90
2022-12-26T23:10:13.284Z,4.80
2022-12-26T23:12:46.311Z,4.80
2022-12-26T23:15:24.909Z,4.80
2022-12-26T23:18:18.916Z,4.70
2022-12-26T23:21:04.471Z,4.70
2022-12-26T23:23:31.791Z,4.70
2022-12-26T23:26:01.892Z,4.70
2022-12-26T23:28:47.875Z,4.70
2022-12-26T23:31:15.481Z,4.70
2022-12-26T23:33:42.139Z,4.60
2022-12-26T23:36:08.970Z,4.50
2022-12-26T23:38:35.822Z,4.50
2022-12-26T23:41:16.763Z,4.40
2022-12-26T23:43:43.421Z,4.40
2022-12-26T23:46:10.979Z,4.40
2022-12-26T23:48:37.782Z,4.30
2022-12-26T23:51:06.316Z,4.30
2022-12-26T23:53:33.491Z,4.30
2022-12-26T23:56:00.136Z,4.20
2022-12-26T23:58:27.027Z,4.20
